sensor_id;sensor_type;location;lat;lon;timestamp;temperature;humidity
66835;HTU21D;53743;51.100;5.874;2023-08-21T00:00:01;22.63;67.55
66835;HTU21D;53743;51.100;5.874;2023-08-21T00:01:05;22.58;67.88
66835;HTU21D;53743;51.100;5.874;2023-08-21T00:02:07;22.58;67.72
66835;HTU21D;53743;51.100;5.874;2023-08-21T00:03:09;22.56;67.81
66835;HTU21D;53743;51.100;5.874;2023-08-21T00:04:10;22.57;68.25
66835;HTU21D;53743;51.100;5.874;2023-08-21T00:05:12;22.57;67.80
66835;HTU21D;53743;51.100;5.874;2023-08-21T00:06:13;22.52;68.58
66835;HTU21D;53743;51.100;5.874;2023-08-21T00:07:15;22.47;68.33
66835;HTU21D;53743;51.100;5.874;2023-08-21T00:08:16;22.46;68.32
66835;HTU21D;53743;51.100;5.874;2023-08-21T00:09:18;22.44;68.54
66835;HTU21D;53743;51.100;5.874;2023-08-21T00:10:19;22.41;68.54
66835;HTU21D;53743;51.100;5.874;2023-08-21T00:11:21;22.44;68.55
66835;HTU21D;53743;51.100;5.874;2023-08-21T00:12:22;22.44;68.47
66835;HTU21D;53743;51.100;5.874;2023-08-21T00:13:24;22.43;68.47
66835;HTU21D;53743;51.100;5.874;2023-08-21T00:14:25;22.46;68.58
66835;HTU21D;53743;51.100;5.874;2023-08-21T00:15:28;22.47;68.55
66835;HTU21D;53743;51.100;5.874;2023-08-21T00:16:31;22.46;68.63
66835;HTU21D;53743;51.100;5.874;2023-08-21T00:17:33;22.48;68.59
66835;HTU21D;53743;51.100;5.874;2023-08-21T00:18:34;22.48;68.75
66835;HTU21D;53743;51.100;5.874;2023-08-21T00:19:36;22.46;68.83
66835;HTU21D;53743;51.100;5.874;2023-08-21T00:20:38;22.44;68.77
66835;HTU21D;53743;51.100;5.874;2023-08-21T00:21:42;22.44;68.79
66835;HTU21D;53743;51.100;5.874;2023-08-21T00:22:43;22.41;68.91
66835;HTU21D;53743;51.100;5.874;2023-08-21T00:23:45;22.39;68.88
66835;HTU21D;53743;51.100;5.874;2023-08-21T00:24:47;22.38;68.83
66835;HTU21D;53743;51.100;5.874;2023-08-21T00:25:49;22.38;68.79
66835;HTU21D;53743;51.100;5.874;2023-08-21T00:26:50;22.38;68.82
66835;HTU21D;53743;51.100;5.874;2023-08-21T00:27:52;22.42;68.62
66835;HTU21D;53743;51.100;5.874;2023-08-21T00:28:53;22.44;68.23
66835;HTU21D;53743;51.100;5.874;2023-08-21T00:29:55;22.48;68.13
66835;HTU21D;53743;51.100;5.874;2023-08-21T00:31:00;22.48;68.47
66835;HTU21D;53743;51.100;5.874;2023-08-21T00:32:05;22.42;68.39
66835;HTU21D;53743;51.100;5.874;2023-08-21T00:33:07;22.38;68.07
66835;HTU21D;53743;51.100;5.874;2023-08-21T00:34:09;22.34;68.00
66835;HTU21D;53743;51.100;5.874;2023-08-21T00:35:10;22.34;68.29
66835;HTU21D;53743;51.100;5.874;2023-08-21T00:36:12;22.31;68.42
66835;HTU21D;53743;51.100;5.874;2023-08-21T00:37:13;22.28;68.68
66835;HTU21D;53743;51.100;5.874;2023-08-21T00:38:15;22.27;68.72
66835;HTU21D;53743;51.100;5.874;2023-08-21T00:39:16;22.24;69.07
66835;HTU21D;53743;51.100;5.874;2023-08-21T00:40:19;22.19;69.16
66835;HTU21D;53743;51.100;5.874;2023-08-21T00:41:20;22.16;69.50
66835;HTU21D;53743;51.100;5.874;2023-08-21T00:42:22;22.13;69.56
66835;HTU21D;53743;51.100;5.874;2023-08-21T00:43:23;22.11;69.66
66835;HTU21D;53743;51.100;5.874;2023-08-21T00:44:25;22.09;69.74
66835;HTU21D;53743;51.100;5.874;2023-08-21T00:45:26;22.09;69.97
66835;HTU21D;53743;51.100;5.874;2023-08-21T00:46:28;22.06;70.19
66835;HTU21D;53743;51.100;5.874;2023-08-21T00:47:31;22.05;69.67
66835;HTU21D;53743;51.100;5.874;2023-08-21T00:48:34;22.10;69.75
66835;HTU21D;53743;51.100;5.874;2023-08-21T00:49:36;22.08;69.56
66835;HTU21D;53743;51.100;5.874;2023-08-21T00:50:40;22.05;70.02
66835;HTU21D;53743;51.100;5.874;2023-08-21T00:51:41;21.98;69.64
66835;HTU21D;53743;51.100;5.874;2023-08-21T00:52:45;21.97;69.48
66835;HTU21D;53743;51.100;5.874;2023-08-21T00:53:48;21.96;69.74
66835;HTU21D;53743;51.100;5.874;2023-08-21T00:54:50;21.95;69.89
66835;HTU21D;53743;51.100;5.874;2023-08-21T00:55:52;21.94;70.07
66835;HTU21D;53743;51.100;5.874;2023-08-21T00:56:55;21.93;70.44
66835;HTU21D;53743;51.100;5.874;2023-08-21T00:57:56;21.90;70.55
66835;HTU21D;53743;51.100;5.874;2023-08-21T00:58:59;21.87;70.59
66835;HTU21D;53743;51.100;5.874;2023-08-21T01:00:02;21.84;70.62
66835;HTU21D;53743;51.100;5.874;2023-08-21T01:01:05;21.81;71.08
66835;HTU21D;53743;51.100;5.874;2023-08-21T01:02:06;21.79;70.94
66835;HTU21D;53743;51.100;5.874;2023-08-21T01:04:23;21.78;70.94
66835;HTU21D;53743;51.100;5.874;2023-08-21T01:05:26;21.76;70.91
66835;HTU21D;53743;51.100;5.874;2023-08-21T01:06:27;21.76;71.01
66835;HTU21D;53743;51.100;5.874;2023-08-21T01:07:30;21.76;71.04
66835;HTU21D;53743;51.100;5.874;2023-08-21T01:08:40;21.73;70.94
66835;HTU21D;53743;51.100;5.874;2023-08-21T01:09:54;21.70;70.74
66835;HTU21D;53743;51.100;5.874;2023-08-21T01:11:11;21.74;70.64
66835;HTU21D;53743;51.100;5.874;2023-08-21T01:12:25;21.74;70.51
66835;HTU21D;53743;51.100;5.874;2023-08-21T01:13:44;21.74;70.59
66835;HTU21D;53743;51.100;5.874;2023-08-21T01:14:59;21.73;70.77
66835;HTU21D;53743;51.100;5.874;2023-08-21T01:16:06;21.73;70.68
66835;HTU21D;53743;51.100;5.874;2023-08-21T01:17:11;21.73;70.67
66835;HTU21D;53743;51.100;5.874;2023-08-21T01:18:15;21.73;70.64
66835;HTU21D;53743;51.100;5.874;2023-08-21T01:19:27;21.74;70.58
66835;HTU21D;53743;51.100;5.874;2023-08-21T01:20:32;21.75;70.58
66835;HTU21D;53743;51.100;5.874;2023-08-21T01:21:35;21.69;71.18
66835;HTU21D;53743;51.100;5.874;2023-08-21T01:22:37;21.66;70.64
66835;HTU21D;53743;51.100;5.874;2023-08-21T01:23:42;21.69;70.43
66835;HTU21D;53743;51.100;5.874;2023-08-21T01:24:44;21.69;70.49
66835;HTU21D;53743;51.100;5.874;2023-08-21T01:25:46;21.68;70.67
66835;HTU21D;53743;51.100;5.874;2023-08-21T01:26:47;21.69;70.48
66835;HTU21D;53743;51.100;5.874;2023-08-21T01:27:50;21.68;70.57
66835;HTU21D;53743;51.100;5.874;2023-08-21T01:28:52;21.66;70.62
66835;HTU21D;53743;51.100;5.874;2023-08-21T01:29:55;21.66;70.77
66835;HTU21D;53743;51.100;5.874;2023-08-21T01:31:00;21.64;70.91
66835;HTU21D;53743;51.100;5.874;2023-08-21T01:32:17;21.64;70.90
66835;HTU21D;53743;51.100;5.874;2023-08-21T01:33:26;21.63;70.92
66835;HTU21D;53743;51.100;5.874;2023-08-21T01:34:34;21.63;70.94
66835;HTU21D;53743;51.100;5.874;2023-08-21T01:35:38;21.62;70.93
66835;HTU21D;53743;51.100;5.874;2023-08-21T01:36:40;21.60;70.99
66835;HTU21D;53743;51.100;5.874;2023-08-21T01:37:44;21.60;70.94
66835;HTU21D;53743;51.100;5.874;2023-08-21T01:38:48;21.59;70.90
66835;HTU21D;53743;51.100;5.874;2023-08-21T01:39:49;21.55;71.05
66835;HTU21D;53743;51.100;5.874;2023-08-21T01:40:51;21.54;70.93
66835;HTU21D;53743;51.100;5.874;2023-08-21T01:41:54;21.55;71.25
66835;HTU21D;53743;51.100;5.874;2023-08-21T01:42:57;21.55;70.55
66835;HTU21D;53743;51.100;5.874;2023-08-21T01:43:58;21.54;70.57
66835;HTU21D;53743;51.100;5.874;2023-08-21T01:45:01;21.57;70.67
66835;HTU21D;53743;51.100;5.874;2023-08-21T01:46:03;21.57;70.75
66835;HTU21D;53743;51.100;5.874;2023-08-21T01:47:05;21.58;70.77
66835;HTU21D;53743;51.100;5.874;2023-08-21T01:48:07;21.57;70.81
66835;HTU21D;53743;51.100;5.874;2023-08-21T01:49:10;21.57;70.81
66835;HTU21D;53743;51.100;5.874;2023-08-21T01:50:11;21.55;70.86
66835;HTU21D;53743;51.100;5.874;2023-08-21T01:51:14;21.52;71.08
66835;HTU21D;53743;51.100;5.874;2023-08-21T01:52:15;21.51;71.08
66835;HTU21D;53743;51.100;5.874;2023-08-21T01:53:17;21.51;70.75
66835;HTU21D;53743;51.100;5.874;2023-08-21T01:54:20;21.52;70.57
66835;HTU21D;53743;51.100;5.874;2023-08-21T01:55:22;21.52;70.46
66835;HTU21D;53743;51.100;5.874;2023-08-21T01:56:23;21.50;70.52
66835;HTU21D;53743;51.100;5.874;2023-08-21T01:57:25;21.46;70.78
66835;HTU21D;53743;51.100;5.874;2023-08-21T01:58:27;21.43;70.84
66835;HTU21D;53743;51.100;5.874;2023-08-21T01:59:29;21.42;70.91
66835;HTU21D;53743;51.100;5.874;2023-08-21T02:00:31;21.38;71.03
66835;HTU21D;53743;51.100;5.874;2023-08-21T02:01:33;21.34;71.31
66835;HTU21D;53743;51.100;5.874;2023-08-21T02:02:34;21.32;71.34
66835;HTU21D;53743;51.100;5.874;2023-08-21T02:03:36;21.29;71.47
66835;HTU21D;53743;51.100;5.874;2023-08-21T02:04:37;21.30;71.63
66835;HTU21D;53743;51.100;5.874;2023-08-21T02:05:39;21.28;71.91
66835;HTU21D;53743;51.100;5.874;2023-08-21T02:06:42;21.30;71.68
66835;HTU21D;53743;51.100;5.874;2023-08-21T02:07:44;21.27;71.75
66835;HTU21D;53743;51.100;5.874;2023-08-21T02:08:48;21.23;71.97
66835;HTU21D;53743;51.100;5.874;2023-08-21T02:09:53;21.20;72.09
66835;HTU21D;53743;51.100;5.874;2023-08-21T02:10:55;21.17;72.25
66835;HTU21D;53743;51.100;5.874;2023-08-21T02:11:56;21.15;72.35
66835;HTU21D;53743;51.100;5.874;2023-08-21T02:12:58;21.13;72.39
66835;HTU21D;53743;51.100;5.874;2023-08-21T02:13:59;21.11;72.83
66835;HTU21D;53743;51.100;5.874;2023-08-21T02:15:01;21.11;72.51
66835;HTU21D;53743;51.100;5.874;2023-08-21T02:16:06;21.10;72.56
66835;HTU21D;53743;51.100;5.874;2023-08-21T02:17:09;21.09;72.60
66835;HTU21D;53743;51.100;5.874;2023-08-21T02:18:11;21.07;72.52
66835;HTU21D;53743;51.100;5.874;2023-08-21T02:19:13;21.05;72.48
66835;HTU21D;53743;51.100;5.874;2023-08-21T02:20:15;21.06;72.32
66835;HTU21D;53743;51.100;5.874;2023-08-21T02:21:17;21.08;72.31
66835;HTU21D;53743;51.100;5.874;2023-08-21T02:22:18;21.10;72.41
66835;HTU21D;53743;51.100;5.874;2023-08-21T02:23:20;21.09;72.32
66835;HTU21D;53743;51.100;5.874;2023-08-21T02:24:21;21.09;72.33
66835;HTU21D;53743;51.100;5.874;2023-08-21T02:25:24;21.09;72.44
66835;HTU21D;53743;51.100;5.874;2023-08-21T02:26:25;21.08;72.40
66835;HTU21D;53743;51.100;5.874;2023-08-21T02:27:27;21.07;72.45
66835;HTU21D;53743;51.100;5.874;2023-08-21T02:28:29;21.10;72.05
66835;HTU21D;53743;51.100;5.874;2023-08-21T02:29:31;21.08;72.07
66835;HTU21D;53743;51.100;5.874;2023-08-21T02:30:32;21.04;72.37
66835;HTU21D;53743;51.100;5.874;2023-08-21T02:31:34;21.02;72.37
66835;HTU21D;53743;51.100;5.874;2023-08-21T02:32:35;21.03;72.32
66835;HTU21D;53743;51.100;5.874;2023-08-21T02:33:38;21.02;72.34
66835;HTU21D;53743;51.100;5.874;2023-08-21T02:34:39;21.03;72.33
66835;HTU21D;53743;51.100;5.874;2023-08-21T02:35:41;21.03;72.06
66835;HTU21D;53743;51.100;5.874;2023-08-21T02:36:42;21.02;72.09
66835;HTU21D;53743;51.100;5.874;2023-08-21T02:37:45;21.03;72.06
66835;HTU21D;53743;51.100;5.874;2023-08-21T02:38:46;21.04;71.93
66835;HTU21D;53743;51.100;5.874;2023-08-21T02:39:48;21.05;71.84
66835;HTU21D;53743;51.100;5.874;2023-08-21T02:40:50;21.07;71.71
66835;HTU21D;53743;51.100;5.874;2023-08-21T02:41:52;21.07;71.64
66835;HTU21D;53743;51.100;5.874;2023-08-21T02:42:53;21.06;71.55
66835;HTU21D;53743;51.100;5.874;2023-08-21T02:43:55;21.08;71.39
66835;HTU21D;53743;51.100;5.874;2023-08-21T02:44:56;21.07;71.35
66835;HTU21D;53743;51.100;5.874;2023-08-21T02:45:59;21.06;71.26
66835;HTU21D;53743;51.100;5.874;2023-08-21T02:47:00;21.07;71.22
66835;HTU21D;53743;51.100;5.874;2023-08-21T02:48:02;21.07;71.18
66835;HTU21D;53743;51.100;5.874;2023-08-21T02:49:04;21.04;71.14
66835;HTU21D;53743;51.100;5.874;2023-08-21T02:50:08;21.05;71.12
66835;HTU21D;53743;51.100;5.874;2023-08-21T02:51:10;21.04;70.98
66835;HTU21D;53743;51.100;5.874;2023-08-21T02:52:12;21.03;71.00
66835;HTU21D;53743;51.100;5.874;2023-08-21T02:53:13;21.04;71.03
66835;HTU21D;53743;51.100;5.874;2023-08-21T02:54:15;21.05;71.05
66835;HTU21D;53743;51.100;5.874;2023-08-21T02:55:16;21.05;71.15
66835;HTU21D;53743;51.100;5.874;2023-08-21T02:56:21;21.05;71.30
66835;HTU21D;53743;51.100;5.874;2023-08-21T02:57:23;21.05;71.40
66835;HTU21D;53743;51.100;5.874;2023-08-21T02:58:25;21.05;71.44
66835;HTU21D;53743;51.100;5.874;2023-08-21T02:59:26;21.05;71.43
66835;HTU21D;53743;51.100;5.874;2023-08-21T03:00:28;21.05;71.33
66835;HTU21D;53743;51.100;5.874;2023-08-21T03:01:29;21.05;71.22
66835;HTU21D;53743;51.100;5.874;2023-08-21T03:02:31;21.05;71.16
66835;HTU21D;53743;51.100;5.874;2023-08-21T03:03:33;21.05;71.16
66835;HTU21D;53743;51.100;5.874;2023-08-21T03:04:36;21.05;71.12
66835;HTU21D;53743;51.100;5.874;2023-08-21T03:05:37;21.05;71.12
66835;HTU21D;53743;51.100;5.874;2023-08-21T03:06:39;21.04;71.14
66835;HTU21D;53743;51.100;5.874;2023-08-21T03:07:40;21.05;71.14
66835;HTU21D;53743;51.100;5.874;2023-08-21T03:08:42;21.04;71.24
66835;HTU21D;53743;51.100;5.874;2023-08-21T03:09:45;21.04;71.31
66835;HTU21D;53743;51.100;5.874;2023-08-21T03:10:48;21.04;71.37
66835;HTU21D;53743;51.100;5.874;2023-08-21T03:11:50;21.04;71.46
66835;HTU21D;53743;51.100;5.874;2023-08-21T03:12:52;21.02;71.50
66835;HTU21D;53743;51.100;5.874;2023-08-21T03:13:54;21.00;71.68
66835;HTU21D;53743;51.100;5.874;2023-08-21T03:14:56;21.00;71.80
66835;HTU21D;53743;51.100;5.874;2023-08-21T03:15:58;20.96;71.87
66835;HTU21D;53743;51.100;5.874;2023-08-21T03:17:01;20.94;71.96
66835;HTU21D;53743;51.100;5.874;2023-08-21T03:18:03;20.92;72.12
66835;HTU21D;53743;51.100;5.874;2023-08-21T03:19:06;20.90;72.21
66835;HTU21D;53743;51.100;5.874;2023-08-21T03:20:08;20.88;72.19
66835;HTU21D;53743;51.100;5.874;2023-08-21T03:21:11;20.87;72.22
66835;HTU21D;53743;51.100;5.874;2023-08-21T03:22:12;20.84;72.28
66835;HTU21D;53743;51.100;5.874;2023-08-21T03:23:14;20.85;72.33
66835;HTU21D;53743;51.100;5.874;2023-08-21T03:24:15;20.80;72.47
66835;HTU21D;53743;51.100;5.874;2023-08-21T03:25:17;20.78;72.64
66835;HTU21D;53743;51.100;5.874;2023-08-21T03:26:18;20.74;72.82
66835;HTU21D;53743;51.100;5.874;2023-08-21T03:27:22;20.72;73.09
66835;HTU21D;53743;51.100;5.874;2023-08-21T03:28:23;20.71;73.30
66835;HTU21D;53743;51.100;5.874;2023-08-21T03:29:25;20.69;73.44
66835;HTU21D;53743;51.100;5.874;2023-08-21T03:30:27;20.66;73.55
66835;HTU21D;53743;51.100;5.874;2023-08-21T03:31:29;20.65;73.73
66835;HTU21D;53743;51.100;5.874;2023-08-21T03:32:31;20.63;73.92
66835;HTU21D;53743;51.100;5.874;2023-08-21T03:33:34;20.63;73.94
66835;HTU21D;53743;51.100;5.874;2023-08-21T03:34:35;20.60;74.18
66835;HTU21D;53743;51.100;5.874;2023-08-21T03:35:37;20.57;74.29
66835;HTU21D;53743;51.100;5.874;2023-08-21T03:36:38;20.57;74.38
66835;HTU21D;53743;51.100;5.874;2023-08-21T03:37:40;20.53;74.44
66835;HTU21D;53743;51.100;5.874;2023-08-21T03:38:44;20.47;74.64
66835;HTU21D;53743;51.100;5.874;2023-08-21T03:39:46;20.45;74.83
66835;HTU21D;53743;51.100;5.874;2023-08-21T03:40:47;20.41;75.01
66835;HTU21D;53743;51.100;5.874;2023-08-21T03:41:51;20.39;75.21
66835;HTU21D;53743;51.100;5.874;2023-08-21T03:42:53;20.36;75.34
66835;HTU21D;53743;51.100;5.874;2023-08-21T03:43:55;20.35;75.52
66835;HTU21D;53743;51.100;5.874;2023-08-21T03:44:57;20.34;75.70
66835;HTU21D;53743;51.100;5.874;2023-08-21T03:45:59;20.33;75.82
66835;HTU21D;53743;51.100;5.874;2023-08-21T03:47:00;20.33;75.96
66835;HTU21D;53743;51.100;5.874;2023-08-21T03:48:07;20.33;76.03
66835;HTU21D;53743;51.100;5.874;2023-08-21T03:49:08;20.33;76.03
66835;HTU21D;53743;51.100;5.874;2023-08-21T03:50:10;20.32;76.08
66835;HTU21D;53743;51.100;5.874;2023-08-21T03:51:11;20.31;76.16
66835;HTU21D;53743;51.100;5.874;2023-08-21T03:52:13;20.29;76.20
66835;HTU21D;53743;51.100;5.874;2023-08-21T03:53:16;20.30;76.27
66835;HTU21D;53743;51.100;5.874;2023-08-21T03:54:18;20.29;76.34
66835;HTU21D;53743;51.100;5.874;2023-08-21T03:55:19;20.28;76.50
66835;HTU21D;53743;51.100;5.874;2023-08-21T03:56:21;20.27;76.63
66835;HTU21D;53743;51.100;5.874;2023-08-21T03:57:24;20.25;76.70
66835;HTU21D;53743;51.100;5.874;2023-08-21T03:58:27;20.25;76.87
66835;HTU21D;53743;51.100;5.874;2023-08-21T03:59:28;20.25;76.92
66835;HTU21D;53743;51.100;5.874;2023-08-21T04:00:30;20.24;76.95
66835;HTU21D;53743;51.100;5.874;2023-08-21T04:01:31;20.24;77.01
66835;HTU21D;53743;51.100;5.874;2023-08-21T04:02:33;20.25;76.95
66835;HTU21D;53743;51.100;5.874;2023-08-21T04:03:34;20.24;76.99
66835;HTU21D;53743;51.100;5.874;2023-08-21T04:04:37;20.25;77.04
66835;HTU21D;53743;51.100;5.874;2023-08-21T04:05:38;20.25;77.01
66835;HTU21D;53743;51.100;5.874;2023-08-21T04:06:40;20.25;77.05
66835;HTU21D;53743;51.100;5.874;2023-08-21T04:07:41;20.24;76.99
66835;HTU21D;53743;51.100;5.874;2023-08-21T04:08:43;20.22;77.01
66835;HTU21D;53743;51.100;5.874;2023-08-21T04:09:44;20.24;76.98
66835;HTU21D;53743;51.100;5.874;2023-08-21T04:10:46;20.22;76.92
66835;HTU21D;53743;51.100;5.874;2023-08-21T04:11:48;20.21;76.86
66835;HTU21D;53743;51.100;5.874;2023-08-21T04:12:50;20.22;76.92
66835;HTU21D;53743;51.100;5.874;2023-08-21T04:13:54;20.22;76.91
66835;HTU21D;53743;51.100;5.874;2023-08-21T04:14:56;20.22;76.94
66835;HTU21D;53743;51.100;5.874;2023-08-21T04:15:57;20.21;76.97
66835;HTU21D;53743;51.100;5.874;2023-08-21T04:17:00;20.19;77.00
66835;HTU21D;53743;51.100;5.874;2023-08-21T04:18:02;20.19;76.98
66835;HTU21D;53743;51.100;5.874;2023-08-21T04:19:05;20.17;77.05
66835;HTU21D;53743;51.100;5.874;2023-08-21T04:20:07;20.17;77.12
66835;HTU21D;53743;51.100;5.874;2023-08-21T04:21:10;20.14;77.12
66835;HTU21D;53743;51.100;5.874;2023-08-21T04:22:11;20.12;77.18
66835;HTU21D;53743;51.100;5.874;2023-08-21T04:23:13;20.09;77.31
66835;HTU21D;53743;51.100;5.874;2023-08-21T04:24:14;20.07;77.37
66835;HTU21D;53743;51.100;5.874;2023-08-21T04:25:16;20.04;77.47
66835;HTU21D;53743;51.100;5.874;2023-08-21T04:26:17;20.04;77.50
66835;HTU21D;53743;51.100;5.874;2023-08-21T04:27:19;20.02;77.49
66835;HTU21D;53743;51.100;5.874;2023-08-21T04:28:20;20.01;77.50
66835;HTU21D;53743;51.100;5.874;2023-08-21T04:29:24;20.02;77.44
66835;HTU21D;53743;51.100;5.874;2023-08-21T04:30:25;20.01;77.37
66835;HTU21D;53743;51.100;5.874;2023-08-21T04:31:27;20.00;77.32
66835;HTU21D;53743;51.100;5.874;2023-08-21T04:32:28;20.01;77.32
66835;HTU21D;53743;51.100;5.874;2023-08-21T04:33:31;20.00;77.37
66835;HTU21D;53743;51.100;5.874;2023-08-21T04:34:33;20.00;77.38
66835;HTU21D;53743;51.100;5.874;2023-08-21T04:35:38;19.99;77.40
66835;HTU21D;53743;51.100;5.874;2023-08-21T04:36:40;19.99;77.46
66835;HTU21D;53743;51.100;5.874;2023-08-21T04:37:45;19.98;77.48
66835;HTU21D;53743;51.100;5.874;2023-08-21T04:38:49;19.96;77.43
66835;HTU21D;53743;51.100;5.874;2023-08-21T04:39:51;19.97;77.47
66835;HTU21D;53743;51.100;5.874;2023-08-21T04:40:53;19.97;77.41
66835;HTU21D;53743;51.100;5.874;2023-08-21T04:41:55;19.96;77.38
66835;HTU21D;53743;51.100;5.874;2023-08-21T04:42:56;19.96;77.43
66835;HTU21D;53743;51.100;5.874;2023-08-21T04:43:59;19.95;77.48
66835;HTU21D;53743;51.100;5.874;2023-08-21T04:45:03;19.96;77.45
66835;HTU21D;53743;51.100;5.874;2023-08-21T04:46:08;19.96;77.41
66835;HTU21D;53743;51.100;5.874;2023-08-21T04:47:20;19.95;77.36
66835;HTU21D;53743;51.100;5.874;2023-08-21T04:48:25;19.94;77.34
66835;HTU21D;53743;51.100;5.874;2023-08-21T04:49:26;19.94;77.27
66835;HTU21D;53743;51.100;5.874;2023-08-21T04:50:28;19.95;77.23
66835;HTU21D;53743;51.100;5.874;2023-08-21T04:51:29;19.95;77.23
66835;HTU21D;53743;51.100;5.874;2023-08-21T04:52:33;19.95;77.21
66835;HTU21D;53743;51.100;5.874;2023-08-21T04:53:35;19.95;77.21
66835;HTU21D;53743;51.100;5.874;2023-08-21T04:54:37;19.97;77.30
66835;HTU21D;53743;51.100;5.874;2023-08-21T04:55:39;19.96;77.39
66835;HTU21D;53743;51.100;5.874;2023-08-21T04:56:42;19.96;77.45
66835;HTU21D;53743;51.100;5.874;2023-08-21T04:57:45;19.96;77.43
66835;HTU21D;53743;51.100;5.874;2023-08-21T04:58:47;19.99;77.40
66835;HTU21D;53743;51.100;5.874;2023-08-21T04:59:48;19.99;77.36
66835;HTU21D;53743;51.100;5.874;2023-08-21T05:00:53;20.00;77.22
66835;HTU21D;53743;51.100;5.874;2023-08-21T05:01:55;20.02;77.18
66835;HTU21D;53743;51.100;5.874;2023-08-21T05:02:57;20.03;77.15
66835;HTU21D;53743;51.100;5.874;2023-08-21T05:03:58;20.04;77.17
66835;HTU21D;53743;51.100;5.874;2023-08-21T05:05:00;20.05;77.30
66835;HTU21D;53743;51.100;5.874;2023-08-21T05:06:02;20.04;77.40
66835;HTU21D;53743;51.100;5.874;2023-08-21T05:07:05;20.07;77.47
66835;HTU21D;53743;51.100;5.874;2023-08-21T05:08:06;20.10;77.40
66835;HTU21D;53743;51.100;5.874;2023-08-21T05:09:08;20.10;77.33
66835;HTU21D;53743;51.100;5.874;2023-08-21T05:10:10;20.13;77.32
66835;HTU21D;53743;51.100;5.874;2023-08-21T05:11:13;20.16;77.20
66835;HTU21D;53743;51.100;5.874;2023-08-21T05:12:16;20.18;77.05
66835;HTU21D;53743;51.100;5.874;2023-08-21T05:13:18;20.21;76.86
66835;HTU21D;53743;51.100;5.874;2023-08-21T05:14:20;20.25;76.76
66835;HTU21D;53743;51.100;5.874;2023-08-21T05:15:21;20.27;76.70
66835;HTU21D;53743;51.100;5.874;2023-08-21T05:16:24;20.27;76.63
66835;HTU21D;53743;51.100;5.874;2023-08-21T05:17:25;20.30;76.66
66835;HTU21D;53743;51.100;5.874;2023-08-21T05:18:28;20.31;76.68
66835;HTU21D;53743;51.100;5.874;2023-08-21T05:19:29;20.33;76.73
66835;HTU21D;53743;51.100;5.874;2023-08-21T05:20:31;20.34;76.69
66835;HTU21D;53743;51.100;5.874;2023-08-21T05:21:32;20.34;76.70
66835;HTU21D;53743;51.100;5.874;2023-08-21T05:22:34;20.36;76.66
66835;HTU21D;53743;51.100;5.874;2023-08-21T05:23:35;20.39;76.71
66835;HTU21D;53743;51.100;5.874;2023-08-21T05:24:41;20.40;76.73
66835;HTU21D;53743;51.100;5.874;2023-08-21T05:25:42;20.39;76.84
66835;HTU21D;53743;51.100;5.874;2023-08-21T05:26:45;20.39;77.02
66835;HTU21D;53743;51.100;5.874;2023-08-21T05:27:46;20.39;77.11
66835;HTU21D;53743;51.100;5.874;2023-08-21T05:28:47;20.39;77.20
66835;HTU21D;53743;51.100;5.874;2023-08-21T05:29:49;20.42;77.29
66835;HTU21D;53743;51.100;5.874;2023-08-21T05:30:51;20.44;77.37
66835;HTU21D;53743;51.100;5.874;2023-08-21T05:31:56;20.48;77.25
66835;HTU21D;53743;51.100;5.874;2023-08-21T05:32:57;20.54;77.02
66835;HTU21D;53743;51.100;5.874;2023-08-21T05:33:59;20.60;76.77
66835;HTU21D;53743;51.100;5.874;2023-08-21T05:35:00;20.65;76.52
66835;HTU21D;53743;51.100;5.874;2023-08-21T05:36:06;20.71;76.32
66835;HTU21D;53743;51.100;5.874;2023-08-21T05:37:07;20.76;76.21
66835;HTU21D;53743;51.100;5.874;2023-08-21T05:38:09;20.80;76.13
66835;HTU21D;53743;51.100;5.874;2023-08-21T05:39:10;20.87;75.99
66835;HTU21D;53743;51.100;5.874;2023-08-21T05:40:13;20.92;75.85
66835;HTU21D;53743;51.100;5.874;2023-08-21T05:41:15;20.96;75.73
66835;HTU21D;53743;51.100;5.874;2023-08-21T05:42:17;21.01;75.67
66835;HTU21D;53743;51.100;5.874;2023-08-21T05:43:19;21.06;75.44
66835;HTU21D;53743;51.100;5.874;2023-08-21T05:44:20;21.13;75.27
66835;HTU21D;53743;51.100;5.874;2023-08-21T05:45:22;21.18;75.18
66835;HTU21D;53743;51.100;5.874;2023-08-21T05:46:23;21.22;74.94
66835;HTU21D;53743;51.100;5.874;2023-08-21T05:47:27;21.29;74.83
66835;HTU21D;53743;51.100;5.874;2023-08-21T05:48:28;21.35;74.71
66835;HTU21D;53743;51.100;5.874;2023-08-21T05:49:30;21.42;74.67
66835;HTU21D;53743;51.100;5.874;2023-08-21T05:50:31;21.45;74.75
66835;HTU21D;53743;51.100;5.874;2023-08-21T05:51:33;21.46;74.89
66835;HTU21D;53743;51.100;5.874;2023-08-21T05:52:34;21.48;74.99
66835;HTU21D;53743;51.100;5.874;2023-08-21T05:53:36;21.50;75.02
66835;HTU21D;53743;51.100;5.874;2023-08-21T05:54:38;21.54;74.87
66835;HTU21D;53743;51.100;5.874;2023-08-21T05:55:41;21.58;74.79
66835;HTU21D;53743;51.100;5.874;2023-08-21T05:56:42;21.60;74.59
66835;HTU21D;53743;51.100;5.874;2023-08-21T05:57:44;21.62;74.68
66835;HTU21D;53743;51.100;5.874;2023-08-21T05:58:46;21.67;74.75
66835;HTU21D;53743;51.100;5.874;2023-08-21T05:59:47;21.75;74.70
66835;HTU21D;53743;51.100;5.874;2023-08-21T06:00:49;21.82;73.44
66835;HTU21D;53743;51.100;5.874;2023-08-21T06:01:51;21.90;73.99
66835;HTU21D;53743;51.100;5.874;2023-08-21T06:02:54;21.94;73.65
66835;HTU21D;53743;51.100;5.874;2023-08-21T06:04:24;22.04;73.21
66835;HTU21D;53743;51.100;5.874;2023-08-21T06:05:36;22.09;73.09
66835;HTU21D;53743;51.100;5.874;2023-08-21T06:06:38;22.19;72.94
66835;HTU21D;53743;51.100;5.874;2023-08-21T06:07:40;22.32;72.51
66835;HTU21D;53743;51.100;5.874;2023-08-21T06:08:42;22.50;71.94
66835;HTU21D;53743;51.100;5.874;2023-08-21T06:09:43;22.68;71.02
66835;HTU21D;53743;51.100;5.874;2023-08-21T06:10:47;22.86;70.44
66835;HTU21D;53743;51.100;5.874;2023-08-21T06:11:51;23.11;69.69
66835;HTU21D;53743;51.100;5.874;2023-08-21T06:12:54;23.52;69.53
66835;HTU21D;53743;51.100;5.874;2023-08-21T06:13:55;24.09;68.71
66835;HTU21D;53743;51.100;5.874;2023-08-21T06:14:57;24.80;66.51
66835;HTU21D;53743;51.100;5.874;2023-08-21T06:15:59;25.53;64.07
66835;HTU21D;53743;51.100;5.874;2023-08-21T06:17:03;26.30;59.14
66835;HTU21D;53743;51.100;5.874;2023-08-21T06:18:06;26.96;57.42
66835;HTU21D;53743;51.100;5.874;2023-08-21T06:19:08;27.56;56.58
66835;HTU21D;53743;51.100;5.874;2023-08-21T06:20:10;28.14;53.87
66835;HTU21D;53743;51.100;5.874;2023-08-21T06:21:14;28.70;51.99
66835;HTU21D;53743;51.100;5.874;2023-08-21T06:22:15;29.13;50.21
66835;HTU21D;53743;51.100;5.874;2023-08-21T06:23:16;29.54;49.66
66835;HTU21D;53743;51.100;5.874;2023-08-21T06:24:18;30.01;46.73
66835;HTU21D;53743;51.100;5.874;2023-08-21T06:25:20;30.41;46.73
66835;HTU21D;53743;51.100;5.874;2023-08-21T06:26:22;30.76;45.77
66835;HTU21D;53743;51.100;5.874;2023-08-21T06:27:23;31.10;44.94
66835;HTU21D;53743;51.100;5.874;2023-08-21T06:28:25;31.44;39.20
66835;HTU21D;53743;51.100;5.874;2023-08-21T06:29:26;31.78;42.43